Time;durP1;ratioP1;P1;durP2;ratioP2;P2;SDS_P1;SDS_P2;PMS_P1;PMS_P2;Temp;Humidity;BMP_temperature;BMP_pressure;BME280_temperature;BME280_humidity;BME280_pressure;Samples;Min_cycle;Max_cycle;Signal;HPM_P1;HPM_P2
2022/09/15 11:56:20;;;;;;;6.43;4.90;;;;;;;20.22;62.50;96587.09;4993345;28;20636;-83
2022/09/15 11:59:14;;;;;;;6.85;6.00;;;;;;;21.23;58.41;96585.31;4944940;28;20197;-82
2022/09/15 12:02:27;;;;;;;9.77;5.65;;;;;;;21.33;59.35;96591.00;4953458;28;20657;-81
2022/09/15 12:05:10;;;;;;;8.18;5.38;;;;;;;21.77;57.75;96582.53;4977706;28;20187;-81
2022/09/15 12:08:01;;;;;;;5.57;4.63;;;;;;;21.77;56.22;96593.16;4961506;28;20371;-81
2022/09/15 12:10:34;;;;;;;5.90;4.80;;;;;;;22.11;55.32;96595.69;4925990;28;20760;-82
2022/09/15 12:13:00;;;;;;;5.97;4.97;;;;;;;22.26;55.40;96587.81;4951090;28;20297;-82
2022/09/15 12:15:28;;;;;;;6.13;5.03;;;;;;;22.20;55.78;96588.38;4963620;28;20247;-81
2022/09/15 12:18:18;;;;;;;6.82;4.93;;;;;;;22.20;55.13;96589.13;4951743;28;20228;-81
2022/09/15 12:51:03;;;;;;;4.90;3.05;;;;;;;21.59;52.77;96591.81;5033406;27;20358;-80
2022/09/15 12:53:31;;;;;;;3.42;3.13;;;;;;;22.33;50.44;96586.47;5063415;27;20188;-81
2022/09/15 12:56:00;;;;;;;3.95;3.58;;;;;;;22.42;51.67;96590.56;5029642;28;20183;-81
2022/09/15 12:58:40;;;;;;;6.18;3.22;;;;;;;22.32;49.21;96587.59;5026896;28;20238;-81
2022/09/15 13:01:18;;;;;;;4.40;2.85;;;;;;;22.41;48.74;96593.53;5028604;28;20237;-81
2022/09/15 13:03:44;;;;;;;3.13;2.70;;;;;;;22.60;49.00;96600.88;5028369;28;20208;-81
2022/09/15 13:06:09;;;;;;;6.55;4.00;;;;;;;22.24;51.71;96599.84;5026229;28;20177;-80
2022/09/15 13:08:37;;;;;;;3.20;2.92;;;;;;;21.92;52.74;96604.97;5022450;28;20620;-81
2022/09/15 13:11:08;;;;;;;3.42;3.13;;;;;;;21.72;53.12;96606.63;5008143;28;20260;-80
2022/09/15 13:13:42;;;;;;;3.90;3.40;;;;;;;21.49;55.40;96604.38;5006484;28;20161;-83
2022/09/15 13:16:25;;;;;;;4.67;3.83;;;;;;;21.58;55.99;96609.59;5010305;28;20303;-81
2022/09/15 13:19:12;;;;;;;5.18;3.15;;;;;;;21.51;55.20;96607.47;4999877;28;20979;-81
2022/09/15 13:21:41;;;;;;;3.95;3.28;;;;;;;21.79;54.03;96614.78;5018052;28;20289;-81
2022/09/15 13:24:14;;;;;;;5.93;3.30;;;;;;;21.83;53.77;96617.53;4996651;28;20231;-80
2022/09/15 13:26:41;;;;;;;3.85;3.40;;;;;;;21.89;54.31;96606.38;5008672;28;20315;-81
2022/09/15 13:29:10;;;;;;;4.57;3.65;;;;;;;21.95;52.00;96608.81;5015438;28;20651;-80
2022/09/15 13:31:43;;;;;;;4.43;3.65;;;;;;;21.85;53.55;96610.81;5005148;28;20154;-80
2022/09/15 13:34:36;;;;;;;4.63;3.38;;;;;;;21.77;54.88;96614.34;4993276;28;20611;-81
2022/09/15 13:37:27;;;;;;;3.75;3.00;;;;;;;21.83;51.69;96613.03;5020892;28;20228;-80
2022/09/15 13:40:29;;;;;;;3.72;3.30;;;;;;;21.66;52.79;96607.91;5010317;28;20177;-80
2022/09/15 13:43:09;;;;;;;3.80;3.35;;;;;;;21.70;53.29;96609.59;5025402;28;20250;-80
2022/09/15 13:45:44;;;;;;;3.10;2.80;;;;;;;21.62;51.51;96607.03;5012104;28;20263;-81
2022/09/15 13:48:18;;;;;;;3.97;2.97;;;;;;;21.69;51.25;96607.28;5014064;28;20190;-82
2022/09/15 13:51:01;;;;;;;3.60;3.10;;;;;;;21.67;52.36;96607.59;4994986;28;20267;-81
2022/09/15 13:53:44;;;;;;;3.58;3.28;;;;;;;21.70;53.02;96601.63;4995487;28;20285;-80
2022/09/15 13:56:19;;;;;;;5.22;3.17;;;;;;;21.85;51.02;96600.22;5009599;28;20192;-81
2022/09/15 13:58:44;;;;;;;5.35;3.53;;;;;;;21.97;51.40;96601.31;4991670;28;20159;-80
2022/09/15 14:01:11;;;;;;;4.97;3.47;;;;;;;21.83;52.32;96597.13;5000169;28;20194;-80
2022/09/15 14:04:08;;;;;;;3.05;2.78;;;;;;;21.58;53.74;96608.81;5017675;28;20282;-80
2022/09/15 14:06:39;;;;;;;3.42;2.85;;;;;;;21.77;52.68;96600.34;4974744;28;20256;-81
2022/09/15 14:09:17;;;;;;;4.07;3.28;;;;;;;21.65;52.80;96601.09;5004996;28;20196;-80
2022/09/15 14:11:42;;;;;;;3.53;3.20;;;;;;;21.89;51.46;96598.44;5011334;28;20402;-80
2022/09/15 14:14:26;;;;;;;3.45;2.53;;;;;;;21.70;51.90;96593.69;5016328;28;20212;-81
2022/09/15 14:16:52;;;;;;;2.95;2.25;;;;;;;21.91;49.06;96587.50;5002840;28;20174;-80
2022/09/15 14:19:34;;;;;;;3.70;2.50;;;;;;;21.83;51.82;96586.53;5013050;28;20131;-80
2022/09/15 14:22:02;;;;;;;5.18;3.38;;;;;;;22.05;50.08;96593.25;4976920;28;20271;-81
2022/09/15 14:24:31;;;;;;;4.28;2.45;;;;;;;22.00;49.22;96582.88;4978400;28;20620;-81
2022/09/15 14:27:06;;;;;;;2.97;2.40;;;;;;;22.05;49.02;96585.31;4976800;28;20213;-80
2022/09/15 14:29:32;;;;;;;2.80;2.58;;;;;;;22.32;47.49;96593.66;4974704;28;20201;-80
2022/09/15 14:31:59;;;;;;;2.70;2.25;;;;;;;22.25;47.36;96590.78;5009455;28;20268;-80
2022/09/15 14:34:29;;;;;;;3.70;2.65;;;;;;;22.18;46.99;96598.53;4981056;28;20182;-81
2022/09/15 14:37:02;;;;;;;2.58;2.38;;;;;;;22.21;46.65;96596.00;4996288;28;20329;-80
2022/09/15 14:39:27;;;;;;;3.47;2.67;;;;;;;22.39;46.66;96596.53;5012295;28;20705;-80
2022/09/15 14:41:53;;;;;;;3.42;2.38;;;;;;;22.31;47.88;96588.69;4992813;28;20231;-81
2022/09/15 14:44:24;;;;;;;3.20;2.78;;;;;;;22.33;47.79;96597.09;4997121;28;20158;-80
2022/09/15 14:46:51;;;;;;;3.25;2.50;;;;;;;22.35;48.98;96589.59;5006263;28;20192;-79
2022/09/15 14:49:17;;;;;;;2.40;2.20;;;;;;;22.29;50.13;96588.25;5008343;27;20257;-80
2022/09/15 14:51:43;;;;;;;2.50;2.30;;;;;;;22.31;47.51;96583.41;5025954;28;20265;-79
2022/09/15 14:54:16;;;;;;;3.00;2.30;;;;;;;22.14;49.39;96593.13;4980999;28;20278;-80
2022/09/15 14:56:42;;;;;;;3.00;2.70;;;;;;;22.21;49.94;96590.69;5020958;27;20824;-81
2022/09/15 14:59:15;;;;;;;2.70;2.03;;;;;;;22.17;48.99;96584.50;5011049;28;20151;-80
2022/09/15 15:02:16;;;;;;;2.10;2.00;;;;;;;22.11;48.79;96585.84;4996465;28;20185;-81
2022/09/15 15:04:48;;;;;;;3.03;2.15;;;;;;;22.18;49.74;96586.03;4984577;27;20294;-80
2022/09/15 15:07:21;;;;;;;3.30;2.20;;;;;;;22.21;48.41;96584.63;5018524;27;20655;-80
2022/09/15 15:09:55;;;;;;;2.42;2.22;;;;;;;22.24;49.16;96590.03;5005221;28;20279;-80
2022/09/15 15:12:34;;;;;;;2.78;2.35;;;;;;;22.25;47.07;96591.56;4999870;28;20276;-81
2022/09/15 15:15:00;;;;;;;2.85;2.10;;;;;;;22.20;47.77;96591.78;5012056;28;20291;-80
2022/09/15 15:17:31;;;;;;;3.42;2.33;;;;;;;22.15;47.29;96596.53;5008261;28;20235;-80
2022/09/15 15:20:06;;;;;;;3.05;2.10;;;;;;;22.11;48.86;96587.72;5019354;28;20177;-80
2022/09/15 15:22:32;;;;;;;2.40;2.20;;;;;;;22.16;47.40;96584.84;5015353;28;20701;-80
2022/09/15 15:24:57;;;;;;;2.78;2.28;;;;;;;22.15;48.29;96591.25;5000217;28;20231;-82
2022/09/15 15:27:31;;;;;;;2.47;2.28;;;;;;;22.01;47.66;96592.34;5012903;28;20286;-80
2022/09/15 15:29:57;;;;;;;2.53;2.10;;;;;;;22.21;46.94;96600.53;5015871;27;20293;-81
2022/09/15 15:32:24;;;;;;;2.35;2.15;;;;;;;22.22;47.36;96597.50;5003899;27;20204;-80
2022/09/15 15:34:53;;;;;;;2.13;1.92;;;;;;;22.24;47.51;96597.97;5021254;27;20200;-82
2022/09/15 15:37:27;;;;;;;4.93;2.45;;;;;;;22.03;48.38;96594.69;5001861;28;20303;-82
2022/09/15 15:39:56;;;;;;;3.03;2.30;;;;;;;22.10;47.76;96600.19;5004549;28;20416;-81
2022/09/15 15:42:22;;;;;;;3.70;2.28;;;;;;;22.11;46.90;96604.41;4989878;28;20718;-80
2022/09/15 15:45:20;;;;;;;3.13;2.25;;;;;;;21.92;48.14;96601.53;4985207;28;20266;-80
2022/09/15 15:47:46;;;;;;;4.07;2.78;;;;;;;22.04;49.19;96601.53;5009280;28;20198;-80
2022/09/15 15:50:16;;;;;;;3.25;2.83;;;;;;;21.97;50.46;96603.94;4992734;28;20694;-79
2022/09/15 15:52:42;;;;;;;3.08;2.78;;;;;;;22.00;48.86;96600.63;4995065;28;20413;-80
2022/09/15 15:55:15;;;;;;;2.63;2.42;;;;;;;21.82;48.52;96606.19;5014956;28;20207;-80
2022/09/15 15:57:40;;;;;;;2.47;2.28;;;;;;;21.92;48.40;96601.53;5011749;28;20563;-80
2022/09/15 16:00:20;;;;;;;3.45;2.55;;;;;;;21.74;48.65;96606.28;4992972;28;20229;-80
2022/09/15 16:02:45;;;;;;;4.18;2.70;;;;;;;21.81;48.60;96604.63;5003319;28;20769;-80
2022/09/15 16:05:12;;;;;;;3.25;2.13;;;;;;;21.82;48.74;96608.81;5028935;28;20198;-80
2022/09/15 16:07:38;;;;;;;3.20;2.90;;;;;;;21.81;48.57;96609.91;5010977;28;20236;-80
2022/09/15 16:10:05;;;;;;;5.88;4.00;;;;;;;21.80;48.63;96619.00;5008089;28;20189;-80
2022/09/15 16:12:30;;;;;;;3.60;3.30;;;;;;;21.81;47.85;96612.56;4988158;28;20418;-80
2022/09/15 16:14:55;;;;;;;2.97;2.42;;;;;;;21.77;48.12;96622.28;5026183;28;20803;-80
2022/09/15 16:17:21;;;;;;;4.72;3.10;;;;;;;21.79;48.12;96625.38;4995826;28;20755;-81
2022/09/15 16:19:50;;;;;;;2.95;2.65;;;;;;;21.81;48.45;96619.75;4963873;28;20698;-81
2022/09/15 16:22:19;;;;;;;3.65;2.60;;;;;;;21.74;49.07;96625.59;4993274;28;20269;-81
2022/09/15 16:24:44;;;;;;;6.28;2.90;;;;;;;21.78;49.13;96621.19;4990396;28;20210;-80
2022/09/15 16:27:12;;;;;;;3.25;2.60;;;;;;;21.65;52.30;96623.06;4973123;28;20186;-80
2022/09/15 16:29:38;;;;;;;3.22;2.90;;;;;;;21.62;53.50;96615.00;5001675;28;20687;-80
2022/09/15 16:32:05;;;;;;;5.63;3.28;;;;;;;21.44;54.80;96609.88;4991508;28;20217;-80
2022/09/15 16:34:30;;;;;;;3.40;3.03;;;;;;;21.33;55.84;96612.19;5069937;27;20026;-85
2022/09/15 16:36:56;;;;;;;3.40;3.03;;;;;;;21.32;54.71;96615.91;5080213;27;20513;-82
2022/09/15 16:39:21;;;;;;;5.10;3.00;;;;;;;21.27;52.37;96607.41;5041169;27;20526;-86
2022/09/15 16:41:46;;;;;;;4.90;3.28;;;;;;;21.30;52.47;96612.81;5131610;27;20073;-86
2022/09/15 16:44:16;;;;;;;3.28;2.97;;;;;;;21.22;52.56;96615.56;5127683;27;20031;-85
2022/09/15 16:46:42;;;;;;;5.28;3.22;;;;;;;21.26;52.82;96611.91;5061281;28;20042;-82
2022/09/15 16:49:07;;;;;;;3.55;2.85;;;;;;;21.24;52.93;96618.66;5092369;28;20513;-86
2022/09/15 16:51:32;;;;;;;3.42;3.10;;;;;;;21.20;52.90;96618.53;5090392;28;20101;-84
2022/09/15 16:53:58;;;;;;;3.42;3.13;;;;;;;21.23;53.92;96627.69;5083632;28;20031;-85
2022/09/15 16:56:23;;;;;;;3.55;3.28;;;;;;;21.26;52.65;96625.16;5095225;28;20039;-86
2022/09/15 16:58:50;;;;;;;3.33;3.03;;;;;;;21.20;55.54;96623.03;5110483;28;20122;-84
2022/09/15 17:01:17;;;;;;;3.75;3.45;;;;;;;21.14;56.60;96633.84;5091467;28;20035;-84
2022/09/15 17:03:43;;;;;;;3.63;3.10;;;;;;;21.07;57.86;96633.59;5089304;28;20081;-81
2022/09/15 17:06:12;;;;;;;4.63;3.80;;;;;;;20.94;58.30;96624.84;5052724;28;20056;-84
2022/09/15 17:08:37;;;;;;;4.45;3.00;;;;;;;20.99;58.65;96625.72;5072963;28;20139;-84
2022/09/15 17:45:25;;;;;;;4.30;3.40;;;;;;;18.44;67.46;96640.91;5120935;27;20640;-84
2022/09/15 17:47:51;;;;;;;3.90;3.55;;;;;;;19.23;64.87;96636.41;5087342;28;20040;-84
2022/09/15 17:50:20;;;;;;;4.00;3.50;;;;;;;19.28;64.61;96635.47;5082526;28;20441;-84
2022/09/15 17:52:46;;;;;;;5.43;3.58;;;;;;;19.27;64.74;96639.97;5084457;28;20028;-84
2022/09/15 17:55:27;;;;;;;4.65;4.10;;;;;;;19.08;64.36;96639.53;5049727;28;20740;-84
2022/09/15 17:57:53;;;;;;;6.50;4.32;;;;;;;19.23;64.63;96641.69;5084368;28;20459;-84
2022/09/15 18:00:19;;;;;;;5.57;4.13;;;;;;;19.13;64.63;96644.66;5081812;28;20507;-82
2022/09/15 18:02:50;;;;;;;4.47;3.97;;;;;;;19.03;63.99;96644.97;5084024;28;20072;-85
2022/09/15 18:05:20;;;;;;;3.95;3.65;;;;;;;18.96;64.35;96644.69;5065111;28;20141;-85
2022/09/15 18:07:46;;;;;;;4.05;3.50;;;;;;;19.07;64.31;96648.53;5084040;28;20020;-84
2022/09/15 18:10:13;;;;;;;5.15;4.30;;;;;;;19.03;64.19;96647.63;5082550;28;20036;-83
2022/09/15 18:12:38;;;;;;;4.93;3.90;;;;;;;19.02;63.70;96649.50;5084009;28;20047;-85
2022/09/15 18:15:04;;;;;;;4.97;3.80;;;;;;;18.99;64.36;96644.06;5083767;28;20037;-83
2022/09/15 18:17:30;;;;;;;8.75;4.32;;;;;;;18.98;64.59;96642.50;5084004;28;20028;-84
2022/09/15 18:19:55;;;;;;;5.05;4.55;;;;;;;18.95;63.29;96648.38;5065514;28;20040;-84
2022/09/15 18:22:21;;;;;;;5.15;4.00;;;;;;;18.94;61.79;96649.50;5083416;28;20029;-84
2022/09/15 18:24:47;;;;;;;4.22;3.60;;;;;;;19.11;59.76;96659.25;5064268;28;20032;-86
2022/09/15 18:27:12;;;;;;;3.75;3.42;;;;;;;19.27;58.67;96655.81;5085588;28;20028;-83
2022/09/15 18:29:37;;;;;;;4.35;3.92;;;;;;;19.36;57.08;96657.66;5081707;28;20068;-84
2022/09/15 18:32:03;;;;;;;5.45;3.33;;;;;;;19.44;56.22;96656.88;5067754;28;20028;-84
2022/09/15 18:34:28;;;;;;;4.53;3.22;;;;;;;19.51;56.11;96665.06;5085854;28;20029;-83
2022/09/15 18:36:54;;;;;;;4.70;3.10;;;;;;;19.50;56.20;96658.25;5084313;28;20024;-84
2022/09/15 18:39:19;;;;;;;5.55;3.33;;;;;;;19.55;55.19;96665.22;5077905;28;20028;-83
2022/09/15 18:41:44;;;;;;;2.65;2.45;;;;;;;19.53;55.62;96662.91;5067018;28;20032;-84
2022/09/15 18:44:10;;;;;;;4.35;3.40;;;;;;;19.53;55.12;96668.19;5073851;28;20033;-84
2022/09/15 18:46:38;;;;;;;4.07;3.08;;;;;;;19.51;57.28;96672.22;5064254;28;20032;-82
2022/09/15 18:49:03;;;;;;;3.42;2.92;;;;;;;19.46;56.22;96668.66;5057642;28;20033;-85
2022/09/15 18:51:29;;;;;;;3.95;2.72;;;;;;;19.40;56.06;96674.44;5065892;28;20035;-83
2022/09/15 18:53:56;;;;;;;3.55;3.08;;;;;;;19.39;56.81;96680.78;5051958;28;20090;-83
2022/09/15 18:56:21;;;;;;;3.88;2.53;;;;;;;19.42;56.01;96682.81;5057034;28;20034;-83
2022/09/15 18:58:47;;;;;;;3.40;3.05;;;;;;;19.46;54.24;96681.84;5052781;28;20036;-82
2022/09/15 19:01:12;;;;;;;6.07;3.00;;;;;;;19.44;55.99;96681.41;5045159;28;20370;-83
2022/09/15 19:03:38;;;;;;;3.92;3.42;;;;;;;19.42;57.15;96688.09;5040107;28;20040;-82
2022/09/15 19:06:05;;;;;;;5.03;3.40;;;;;;;19.33;55.42;96688.13;5043903;28;20504;-82
2022/09/15 19:08:32;;;;;;;78.78;47.85;;;;;;;19.35;57.38;96688.56;5042736;28;20033;-82
2022/09/15 19:10:59;;;;;;;11.70;8.38;;;;;;;19.28;58.86;96694.31;5059417;28;20498;-84
2022/09/15 19:13:24;;;;;;;8.65;6.10;;;;;;;19.12;60.51;96689.81;5059544;28;20025;-83
2022/09/15 19:15:50;;;;;;;7.50;4.13;;;;;;;19.01;60.35;96698.06;5043213;28;20021;-84
2022/09/15 19:18:15;;;;;;;3.95;3.42;;;;;;;18.96;61.00;96692.16;5034141;28;20041;-84
2022/09/15 19:20:40;;;;;;;4.40;2.92;;;;;;;18.87;60.57;96700.84;5040499;28;20033;-82
2022/09/15 19:23:06;;;;;;;3.88;2.83;;;;;;;18.87;60.95;96702.72;5059807;28;20052;-84
2022/09/15 19:25:32;;;;;;;3.83;3.30;;;;;;;18.82;61.12;96700.19;5068526;28;20040;-83
2022/09/15 19:27:57;;;;;;;4.15;2.75;;;;;;;18.74;61.66;96706.25;5040917;28;20127;-83
2022/09/15 19:30:23;;;;;;;4.18;3.40;;;;;;;18.65;62.90;96714.91;5048883;28;20112;-84
2022/09/15 19:32:48;;;;;;;5.03;3.30;;;;;;;18.75;62.10;96710.41;5060334;28;20036;-83
2022/09/15 19:35:14;;;;;;;5.90;3.40;;;;;;;18.75;62.05;96710.41;5059011;28;20033;-84
2022/09/15 19:37:40;;;;;;;3.40;3.10;;;;;;;18.72;62.39;96711.81;5043061;28;20400;-84
2022/09/15 19:40:08;;;;;;;3.47;3.00;;;;;;;18.76;62.12;96715.38;5058413;28;20108;-84
2022/09/15 19:42:35;;;;;;;4.72;3.10;;;;;;;18.76;61.45;96711.97;5051531;28;20041;-83
2022/09/15 19:45:00;;;;;;;4.53;3.72;;;;;;;18.87;59.19;96716.66;5042211;28;20444;-84
2022/09/15 19:47:25;;;;;;;4.45;4.05;;;;;;;18.94;57.98;96715.44;5057161;28;20116;-84
2022/09/15 19:49:51;;;;;;;5.03;4.10;;;;;;;18.90;58.05;96721.34;5060631;28;20043;-80
2022/09/15 19:52:17;;;;;;;4.82;4.15;;;;;;;18.98;57.92;96716.38;5059081;28;20036;-84
2022/09/15 19:54:42;;;;;;;3.70;3.40;;;;;;;18.99;57.73;96713.44;5058583;28;20070;-83
2022/09/15 19:57:07;;;;;;;6.50;5.30;;;;;;;19.04;57.44;96717.78;5058340;28;20511;-84
2022/09/15 19:59:33;;;;;;;4.82;3.58;;;;;;;19.04;57.30;96709.88;5043538;28;20059;-84
2022/09/15 20:02:00;;;;;;;9.38;5.03;;;;;;;19.07;56.79;96723.22;5060241;28;20037;-84
2022/09/15 20:04:27;;;;;;;4.10;3.50;;;;;;;19.11;57.36;96715.44;5067821;28;20041;-82
2022/09/15 20:06:52;;;;;;;3.70;3.30;;;;;;;19.08;57.21;96721.34;5030454;28;20037;-84
2022/09/15 20:09:17;;;;;;;3.85;3.38;;;;;;;19.10;56.98;96721.81;5067072;28;20745;-85
2022/09/15 20:11:43;;;;;;;3.63;3.17;;;;;;;19.13;56.57;96718.53;5050783;28;20051;-83
2022/09/15 20:14:08;;;;;;;4.32;3.90;;;;;;;19.17;56.57;96722.09;5069356;28;20475;-84
2022/09/15 20:16:34;;;;;;;4.68;3.25;;;;;;;19.24;56.33;96719.00;5068388;28;20058;-83
2022/09/15 20:18:59;;;;;;;4.00;3.33;;;;;;;19.21;56.82;96715.13;5068194;28;20028;-82
2022/09/15 20:21:27;;;;;;;4.85;3.90;;;;;;;19.25;56.13;96710.78;5067294;28;20225;-82
2022/09/15 20:23:57;;;;;;;5.03;3.58;;;;;;;19.17;56.35;96716.81;5051366;28;20032;-83
2022/09/15 20:26:22;;;;;;;3.67;3.15;;;;;;;19.25;56.22;96716.06;5050644;28;20401;-83
2022/09/15 20:28:48;;;;;;;4.88;3.50;;;;;;;19.27;55.90;96707.81;5047372;28;20028;-83
2022/09/15 20:31:15;;;;;;;3.53;2.70;;;;;;;19.25;55.61;96705.50;5046993;28;20037;-83
2022/09/15 20:33:42;;;;;;;4.78;3.53;;;;;;;19.32;55.54;96714.81;5054391;28;20052;-85
2022/09/15 20:36:13;;;;;;;4.57;3.08;;;;;;;19.24;55.99;96719.78;5056012;28;20033;-84
2022/09/15 20:38:39;;;;;;;7.75;3.42;;;;;;;18.95;58.79;96728.31;5044711;28;20036;-84
2022/09/15 20:41:06;;;;;;;4.95;3.42;;;;;;;18.86;60.03;96728.31;5050432;28;20033;-86
2022/09/15 20:43:34;;;;;;;4.25;3.50;;;;;;;18.65;61.79;96719.41;5032905;28;20098;-82
2022/09/15 20:46:01;;;;;;;6.07;3.78;;;;;;;18.76;61.53;96723.28;5018885;28;20121;-83
2022/09/15 20:48:31;;;;;;;4.22;3.58;;;;;;;18.72;61.83;96725.78;5066063;28;20050;-84
2022/09/15 20:51:06;;;;;;;4.32;3.65;;;;;;;18.66;61.98;96734.13;5051015;28;20395;-84
2022/09/15 20:53:32;;;;;;;4.75;3.55;;;;;;;18.81;60.70;96728.41;5070329;28;20032;-81
2022/09/15 20:55:57;;;;;;;4.18;3.45;;;;;;;18.86;60.29;96730.94;5068762;28;20055;-83
2022/09/15 20:58:23;;;;;;;6.32;3.90;;;;;;;18.85;60.24;96739.16;5032941;28;20119;-84
2022/09/15 21:00:50;;;;;;;4.50;3.60;;;;;;;18.82;61.32;96743.19;5048463;28;20041;-85
2022/09/15 21:03:16;;;;;;;5.47;3.97;;;;;;;18.85;60.98;96744.44;5046446;28;20592;-84
2022/09/15 21:05:42;;;;;;;5.97;4.00;;;;;;;18.79;61.85;96737.75;5035122;28;20025;-84
2022/09/15 21:08:09;;;;;;;5.38;3.75;;;;;;;18.78;62.06;96734.34;5041646;28;20540;-83
2022/09/15 21:10:37;;;;;;;4.55;3.90;;;;;;;18.74;61.90;96732.59;5054705;28;20561;-85
2022/09/15 21:13:02;;;;;;;3.83;3.53;;;;;;;18.74;61.92;96727.34;5044350;28;20082;-83
2022/09/15 21:15:28;;;;;;;4.40;4.00;;;;;;;18.74;62.28;96733.38;5060093;28;20567;-84
2022/09/15 21:17:53;;;;;;;4.35;3.80;;;;;;;18.79;61.86;96735.09;5022557;28;20090;-83
2022/09/15 21:20:18;;;;;;;6.85;3.85;;;;;;;18.74;62.14;96737.88;5054339;28;20488;-84
2022/09/15 21:22:44;;;;;;;5.07;4.07;;;;;;;18.76;62.36;96743.63;5053746;28;20717;-84
2022/09/15 21:25:09;;;;;;;4.90;4.10;;;;;;;18.75;61.87;96748.13;5057622;28;20488;-84
2022/09/15 21:27:34;;;;;;;6.38;3.80;;;;;;;18.74;62.30;96743.94;5028663;28;20480;-85
2022/09/15 21:29:59;;;;;;;5.25;3.67;;;;;;;18.77;61.37;96748.59;5061822;28;20228;-83
2022/09/15 21:32:25;;;;;;;4.28;3.88;;;;;;;18.71;61.46;96744.53;5064509;28;20495;-85
2022/09/15 21:34:50;;;;;;;4.68;3.83;;;;;;;18.76;60.77;96751.53;5047001;28;20094;-82
2022/09/15 21:37:16;;;;;;;4.32;3.90;;;;;;;18.74;61.08;96756.34;5065409;28;20316;-84
2022/09/15 21:39:41;;;;;;;4.65;4.15;;;;;;;18.72;61.53;96756.66;5047870;28;20025;-84
2022/09/15 21:42:08;;;;;;;4.40;3.97;;;;;;;18.64;62.24;96760.03;5044292;28;20041;-84
2022/09/15 21:44:34;;;;;;;5.20;4.13;;;;;;;18.63;61.62;96756.63;5073688;28;20521;-84
2022/09/15 21:46:59;;;;;;;5.13;3.72;;;;;;;18.62;61.58;96755.06;5048002;28;20086;-82
2022/09/15 21:49:24;;;;;;;4.57;3.47;;;;;;;18.64;61.77;96762.66;5055813;28;20037;-83
2022/09/15 21:51:50;;;;;;;4.43;3.40;;;;;;;18.55;62.05;96761.88;5059772;28;20039;-84
2022/09/15 21:54:15;;;;;;;4.35;3.97;;;;;;;18.69;61.44;96762.53;5063707;28;20028;-83
2022/09/15 21:56:41;;;;;;;3.95;3.55;;;;;;;18.69;61.49;96765.94;5063990;28;20028;-82
2022/09/15 21:59:09;;;;;;;4.25;3.72;;;;;;;18.71;61.35;96771.69;5030742;28;20033;-84
2022/09/15 22:01:35;;;;;;;4.55;3.53;;;;;;;18.76;60.87;96775.28;5039440;28;20493;-84
2022/09/15 22:04:03;;;;;;;4.22;3.33;;;;;;;18.70;61.47;96772.78;5027571;28;20449;-85
2022/09/15 22:06:39;;;;;;;4.07;3.67;;;;;;;18.63;61.40;96769.03;5030264;28;22308;-80
2022/09/15 22:09:10;;;;;;;3.70;3.33;;;;;;;18.69;61.85;96767.81;5063416;28;20024;-84
2022/09/15 22:11:35;;;;;;;3.95;3.35;;;;;;;18.77;61.68;96769.69;5062370;28;20492;-83
2022/09/15 22:14:02;;;;;;;4.60;3.33;;;;;;;18.73;61.70;96760.84;5064399;28;20029;-80
2022/09/15 22:16:28;;;;;;;4.60;3.78;;;;;;;18.75;61.75;96768.44;5064622;28;20025;-84
2022/09/15 22:18:54;;;;;;;3.75;3.30;;;;;;;18.70;61.46;96759.59;5066699;28;20383;-85
2022/09/15 22:21:25;;;;;;;3.45;3.15;;;;;;;18.64;60.76;96767.94;5027570;28;20060;-85
2022/09/15 22:23:53;;;;;;;3.47;3.17;;;;;;;18.64;60.04;96768.72;5028665;28;20037;-85
2022/09/15 22:26:20;;;;;;;6.45;3.10;;;;;;;18.66;59.64;96765.78;5049902;28;20120;-85
2022/09/15 22:28:46;;;;;;;3.33;3.03;;;;;;;18.60;58.95;96765.16;5042417;28;20108;-84
2022/09/15 22:31:13;;;;;;;4.15;3.40;;;;;;;18.53;58.82;96768.22;5033074;28;20032;-80
2022/09/15 22:33:40;;;;;;;2.97;2.70;;;;;;;18.62;58.62;96770.13;5040361;28;20031;-80
2022/09/15 22:36:14;;;;;;;4.15;2.60;;;;;;;18.50;57.61;96765.44;5026007;28;20055;-84
2022/09/15 22:38:40;;;;;;;3.13;2.83;;;;;;;18.57;58.44;96770.25;5060324;28;20492;-85
2022/09/15 22:41:07;;;;;;;6.32;3.17;;;;;;;18.55;59.12;96764.53;5055311;28;20343;-82
2022/09/15 22:43:33;;;;;;;3.58;2.67;;;;;;;18.52;58.24;96764.06;5052120;28;20033;-85
2022/09/15 22:45:59;;;;;;;4.10;2.92;;;;;;;18.51;58.48;96773.03;5044346;28;20035;-80
2022/09/15 22:48:24;;;;;;;2.85;2.10;;;;;;;18.43;57.00;96759.81;5064892;28;20479;-83
2022/09/15 22:50:49;;;;;;;4.63;2.72;;;;;;;18.40;58.92;96771.75;5058107;28;20199;-84
2022/09/15 22:53:15;;;;;;;3.10;2.10;;;;;;;18.40;58.34;96761.19;5064774;28;20025;-84
2022/09/15 22:55:40;;;;;;;3.22;2.42;;;;;;;18.46;56.12;96769.78;5049506;28;20046;-83
2022/09/15 22:58:06;;;;;;;3.10;2.33;;;;;;;18.43;56.23;96759.81;5055789;28;20354;-84
2022/09/15 23:00:31;;;;;;;6.80;2.40;;;;;;;18.44;56.14;96761.38;5065246;28;20040;-82
2022/09/15 23:02:57;;;;;;;3.15;1.90;;;;;;;18.42;56.61;96758.25;5038992;28;20060;-81
2022/09/15 23:05:23;;;;;;;3.88;2.25;;;;;;;18.41;59.36;96757.50;5055403;28;20070;-83
2022/09/15 23:07:48;;;;;;;3.05;2.25;;;;;;;18.33;59.61;96759.03;5057808;28;20059;-82
2022/09/15 23:10:13;;;;;;;3.30;2.15;;;;;;;18.24;60.20;96757.44;5049432;28;20471;-83
2022/09/15 23:12:39;;;;;;;3.40;2.38;;;;;;;18.10;60.68;96762.81;5060749;28;20443;-82
2022/09/15 23:15:06;;;;;;;2.55;2.30;;;;;;;18.04;60.62;96761.38;5030776;28;20021;-83
2022/09/15 23:17:31;;;;;;;4.65;2.60;;;;;;;17.93;61.00;96761.63;5066204;28;20043;-80
2022/09/15 23:19:57;;;;;;;3.92;2.70;;;;;;;17.84;61.40;96765.25;5048919;28;20025;-82
2022/09/15 23:22:22;;;;;;;3.47;2.85;;;;;;;17.74;62.08;96774.97;5049270;28;20170;-82
2022/09/15 23:24:48;;;;;;;3.17;2.45;;;;;;;17.72;62.25;96774.50;5049394;28;20112;-84
2022/09/15 23:27:13;;;;;;;6.28;2.90;;;;;;;17.74;62.92;96771.56;5049544;28;20029;-84
2022/09/15 23:29:39;;;;;;;5.55;3.45;;;;;;;17.68;63.49;96768.25;5045224;28;20031;-81
2022/09/15 23:32:04;;;;;;;3.88;2.97;;;;;;;17.58;63.92;96769.28;5047659;28;20467;-83
2022/09/15 23:34:29;;;;;;;3.65;3.10;;;;;;;17.66;64.40;96769.66;5061430;28;20500;-84
2022/09/15 23:36:55;;;;;;;6.28;3.53;;;;;;;17.66;65.72;96764.38;5048194;28;20048;-83
2022/09/15 23:39:21;;;;;;;4.78;3.13;;;;;;;17.61;65.93;96767.91;5044533;28;20036;-83
2022/09/15 23:41:46;;;;;;;4.63;3.45;;;;;;;17.58;66.16;96777.19;5049976;28;20051;-83
2022/09/15 23:44:12;;;;;;;4.68;3.80;;;;;;;17.56;66.01;96771.44;5048000;28;20529;-82
2022/09/15 23:46:37;;;;;;;4.70;3.30;;;;;;;17.56;66.05;96775.91;5046634;28;20488;-84
2022/09/15 23:49:02;;;;;;;4.72;3.67;;;;;;;17.53;65.95;96772.03;5041889;28;20225;-81
2022/09/15 23:51:28;;;;;;;7.03;3.55;;;;;;;17.51;65.99;96766.31;5039574;28;20033;-83
2022/09/15 23:53:54;;;;;;;3.83;3.40;;;;;;;17.53;65.69;96771.25;5059684;28;20021;-82
2022/09/15 23:56:19;;;;;;;3.97;3.58;;;;;;;17.47;65.93;96772.47;5060463;28;20115;-83
2022/09/15 23:58:44;;;;;;;3.70;3.40;;;;;;;17.42;65.18;96770.72;5046028;28;20564;-83
